createdAt,value
2022-10-12T00:04:10.703Z,100.00
2022-10-12T00:09:12.411Z,100.00
2022-10-12T00:14:14.019Z,100.00
2022-10-12T00:19:15.637Z,100.00
2022-10-12T00:24:17.293Z,100.00
2022-10-12T00:29:18.986Z,100.00
2022-10-12T00:34:20.656Z,100.00
2022-10-12T00:39:22.334Z,100.00
2022-10-12T00:44:53.603Z,100.00
2022-10-12T00:50:16.326Z,100.00
2022-10-12T00:55:18.770Z,100.00
2022-10-12T01:00:20.873Z,100.00
2022-10-12T01:05:22.732Z,100.00
2022-10-12T01:10:24.339Z,100.00
2022-10-12T01:15:29.291Z,100.00
2022-10-12T01:20:57.671Z,100.00
2022-10-12T01:26:37.191Z,100.00
2022-10-12T01:31:44.802Z,100.00
2022-10-12T01:36:49.195Z,100.00
2022-10-12T01:41:58.634Z,100.00
2022-10-12T01:47:01.694Z,100.00
2022-10-12T01:52:28.851Z,100.00
2022-10-12T01:57:46.734Z,100.00
2022-10-12T02:02:54.063Z,100.00
2022-10-12T02:08:08.000Z,100.00
2022-10-12T02:13:11.038Z,100.00
2022-10-12T02:18:13.478Z,100.00
2022-10-12T02:23:15.205Z,100.00
2022-10-12T02:28:17.190Z,100.00
2022-10-12T02:33:29.539Z,100.00
2022-10-12T02:38:36.520Z,100.00
2022-10-12T02:43:40.042Z,100.00
2022-10-12T02:48:41.743Z,100.00
2022-10-12T02:53:45.097Z,100.00
2022-10-12T02:58:46.822Z,100.00
2022-10-12T03:03:48.556Z,100.00
2022-10-12T03:08:50.185Z,100.00
2022-10-12T03:13:52.842Z,100.00
2022-10-12T03:18:54.502Z,100.00
2022-10-12T03:23:56.175Z,100.00
2022-10-12T03:28:57.899Z,100.00
2022-10-12T03:33:59.621Z,100.00
2022-10-12T03:39:01.259Z,100.00
2022-10-12T03:44:03.203Z,100.00
2022-10-12T03:49:04.870Z,100.00
2022-10-12T03:54:06.474Z,100.00
2022-10-12T03:59:08.107Z,100.00
2022-10-12T04:04:10.654Z,100.00
2022-10-12T04:09:12.262Z,100.00
2022-10-12T04:14:13.927Z,100.00
2022-10-12T04:19:15.559Z,100.00
2022-10-12T04:24:17.241Z,100.00
2022-10-12T04:29:18.900Z,100.00
2022-10-12T04:34:20.557Z,100.00
2022-10-12T04:39:22.228Z,100.00
2022-10-12T04:44:27.291Z,100.00
2022-10-12T04:49:31.465Z,100.00
2022-10-12T04:54:33.599Z,100.00
2022-10-12T04:59:35.244Z,100.00
2022-10-12T05:04:36.926Z,100.00
2022-10-12T05:09:38.620Z,100.00
2022-10-12T05:14:40.300Z,100.00
2022-10-12T05:19:41.916Z,100.00
2022-10-12T05:24:43.557Z,100.00
2022-10-12T05:29:45.251Z,100.00
2022-10-12T05:34:46.970Z,100.00
2022-10-12T05:39:49.840Z,100.00
2022-10-12T05:44:51.492Z,100.00
2022-10-12T05:49:53.129Z,100.00
2022-10-12T05:54:54.836Z,100.00
2022-10-12T05:59:56.495Z,100.00
2022-10-12T06:04:58.145Z,100.00
2022-10-12T06:10:00.282Z,100.00
2022-10-12T06:15:01.990Z,100.00
2022-10-12T06:20:05.661Z,100.00
2022-10-12T06:25:07.601Z,100.00
2022-10-12T06:30:09.539Z,100.00
2022-10-12T06:35:11.184Z,100.00
2022-10-12T06:40:12.875Z,100.00
2022-10-12T06:45:14.615Z,100.00
2022-10-12T06:50:16.331Z,100.00
2022-10-12T06:55:18.030Z,100.00
2022-10-12T07:00:19.743Z,100.00
2022-10-12T07:05:22.816Z,100.00
2022-10-12T07:10:25.140Z,100.00
2022-10-12T07:15:26.834Z,100.00
2022-10-12T07:20:28.457Z,100.00
2022-10-12T07:25:30.562Z,100.00
2022-10-12T07:30:32.638Z,100.00
2022-10-12T07:35:34.295Z,100.00
2022-10-12T07:40:35.960Z,100.00
2022-10-12T07:45:37.704Z,100.00
2022-10-12T07:50:39.829Z,100.00
2022-10-12T07:55:41.455Z,100.00
2022-10-12T08:00:43.073Z,100.00
2022-10-12T08:05:44.719Z,100.00
2022-10-12T08:10:46.394Z,100.00
2022-10-12T08:15:51.146Z,100.00
2022-10-12T08:20:52.762Z,100.00
2022-10-12T08:25:58.011Z,100.00
2022-10-12T08:30:59.658Z,100.00
2022-10-12T08:36:03.205Z,100.00
2022-10-12T08:41:28.451Z,100.00
2022-10-12T08:46:30.097Z,100.00
2022-10-12T08:51:35.670Z,100.00
2022-10-12T08:56:40.132Z,100.00
2022-10-12T09:02:14.105Z,100.00
2022-10-12T09:07:17.836Z,100.00
2022-10-12T09:12:29.479Z,100.00
2022-10-12T09:17:39.420Z,100.00
2022-10-12T09:22:41.913Z,100.00
2022-10-12T09:27:45.941Z,100.00
2022-10-12T09:33:29.255Z,100.00
2022-10-12T09:38:30.928Z,100.00
2022-10-12T09:43:32.582Z,100.00
2022-10-12T09:48:34.309Z,99.52
2022-10-12T09:53:43.567Z,97.70
2022-10-12T09:59:04.446Z,93.95
2022-10-12T10:04:17.733Z,90.89
2022-10-12T10:09:32.987Z,88.70
2022-10-12T10:14:35.558Z,88.10
2022-10-12T10:19:37.291Z,85.71
2022-10-12T10:24:38.902Z,84.80
2022-10-12T10:29:41.744Z,83.55
2022-10-12T10:34:43.475Z,83.61
2022-10-12T10:39:46.570Z,84.10
2022-10-12T10:44:52.438Z,81.19
2022-10-12T10:50:24.564Z,78.46
2022-10-12T10:55:42.266Z,78.97
2022-10-12T11:00:44.528Z,75.90
2022-10-12T11:05:49.577Z,76.75
2022-10-12T11:11:07.765Z,74.14
2022-10-12T11:16:32.461Z,71.70
2022-10-12T11:21:47.616Z,72.26
2022-10-12T11:26:57.023Z,70.64
2022-10-12T11:32:07.639Z,69.30
2022-10-12T11:37:21.076Z,69.27
2022-10-12T11:42:43.209Z,68.76
2022-10-12T11:47:47.241Z,66.93
2022-10-12T11:52:49.415Z,67.74
2022-10-12T11:57:51.139Z,67.50
2022-10-12T12:03:02.516Z,66.48
2022-10-12T12:08:04.200Z,65.25
2022-10-12T12:13:12.966Z,64.07
2022-10-12T12:18:17.083Z,60.00
2022-10-12T12:23:22.236Z,59.08
2022-10-12T12:28:24.003Z,57.85
2022-10-12T12:33:31.018Z,54.81
2022-10-12T12:38:40.238Z,54.00
2022-10-12T12:43:44.865Z,50.10
2022-10-12T12:48:46.521Z,51.00
2022-10-12T12:54:12.297Z,50.20
2022-10-12T12:59:33.568Z,49.94
2022-10-12T13:04:44.103Z,49.68
2022-10-12T13:10:08.245Z,49.32
2022-10-12T13:15:27.105Z,48.44
2022-10-12T13:20:30.894Z,48.42
2022-10-12T13:25:51.521Z,48.50
2022-10-12T13:31:09.358Z,47.80
2022-10-12T13:36:24.267Z,46.36
2022-10-12T13:41:26.950Z,44.77
2022-10-12T13:46:52.099Z,44.36
2022-10-12T13:51:55.023Z,44.76
2022-10-12T13:56:59.160Z,44.41
2022-10-12T14:02:01.570Z,43.93
2022-10-12T14:07:05.698Z,43.79
2022-10-12T14:12:07.714Z,44.58
2022-10-12T14:17:17.193Z,45.46
2022-10-12T14:22:27.832Z,45.96
2022-10-12T14:27:29.460Z,46.63
2022-10-12T14:32:37.683Z,47.35
2022-10-12T14:37:39.383Z,48.98
2022-10-12T14:42:41.012Z,49.91
2022-10-12T14:47:42.880Z,49.41
2022-10-12T14:52:46.285Z,50.61
2022-10-12T14:57:48.052Z,51.48
2022-10-12T15:02:49.871Z,51.30
2022-10-12T15:07:51.620Z,51.94
2022-10-12T15:12:53.375Z,52.40
2022-10-12T15:17:55.049Z,54.06
2022-10-12T15:22:57.715Z,54.76
2022-10-12T15:27:59.356Z,54.27
2022-10-12T15:33:00.998Z,55.97
2022-10-12T15:38:02.923Z,57.22
2022-10-12T15:43:04.587Z,58.10
2022-10-12T15:48:07.146Z,59.43
2022-10-12T15:53:10.657Z,61.17
2022-10-12T15:58:12.492Z,61.37
2022-10-12T16:03:15.917Z,61.94
2022-10-12T16:08:17.555Z,62.95
2022-10-12T16:13:19.311Z,64.80
2022-10-12T16:18:20.995Z,64.93
2022-10-12T16:23:27.839Z,66.25
2022-10-12T16:28:29.517Z,66.06
2022-10-12T16:33:31.264Z,66.75
2022-10-12T16:38:32.932Z,67.81
2022-10-12T16:43:34.593Z,68.98
2022-10-12T16:48:36.469Z,71.11
2022-10-12T16:53:38.386Z,71.73
2022-10-12T16:58:40.034Z,72.41
2022-10-12T17:03:41.675Z,73.84
2022-10-12T17:08:43.338Z,74.94
2022-10-12T17:13:48.970Z,75.72
2022-10-12T17:18:54.492Z,76.93
2022-10-12T17:23:59.172Z,78.35
2022-10-12T17:29:00.849Z,78.81
2022-10-12T17:34:02.486Z,79.52
2022-10-12T17:39:04.174Z,80.57
2022-10-12T17:44:05.919Z,81.37
2022-10-12T17:49:08.216Z,81.99
2022-10-12T17:54:09.900Z,82.96
2022-10-12T17:59:14.050Z,83.98
2022-10-12T18:04:15.714Z,85.20
2022-10-12T18:09:17.455Z,85.96
2022-10-12T18:14:19.175Z,87.13
2022-10-12T18:19:20.808Z,87.56
2022-10-12T18:24:23.209Z,88.49
2022-10-12T18:29:24.916Z,88.50
2022-10-12T18:34:26.783Z,89.18
2022-10-12T18:39:28.427Z,89.92
2022-10-12T18:44:30.069Z,90.41
2022-10-12T18:49:31.775Z,90.59
2022-10-12T18:54:33.510Z,91.32
2022-10-12T18:59:36.134Z,92.03
2022-10-12T19:04:37.829Z,92.36
2022-10-12T19:09:39.471Z,92.83
2022-10-12T19:14:41.144Z,93.65
2022-10-12T19:19:42.810Z,94.06
2022-10-12T19:24:44.432Z,94.36
2022-10-12T19:29:46.123Z,94.31
2022-10-12T19:34:50.882Z,94.45
2022-10-12T19:39:52.585Z,94.50
2022-10-12T19:44:54.293Z,94.96
2022-10-12T19:49:55.975Z,95.19
2022-10-12T19:54:57.598Z,95.76
2022-10-12T19:59:59.236Z,96.22
2022-10-12T20:05:00.903Z,96.41
2022-10-12T20:10:02.540Z,96.87
2022-10-12T20:15:04.645Z,97.43
2022-10-12T20:20:06.506Z,97.24
2022-10-12T20:25:09.786Z,97.54
2022-10-12T20:30:11.998Z,97.98
2022-10-12T20:35:13.714Z,98.35
2022-10-12T20:40:15.371Z,98.74
2022-10-12T20:45:17.125Z,98.85
2022-10-12T20:50:18.841Z,99.17
2022-10-12T20:55:20.814Z,99.32
2022-10-12T21:00:22.448Z,98.98
2022-10-12T21:05:24.172Z,99.39
2022-10-12T21:10:25.868Z,99.81
2022-10-12T21:15:27.504Z,100.00
2022-10-12T21:20:29.140Z,100.00
2022-10-12T21:25:30.763Z,100.00
2022-10-12T21:30:32.488Z,100.00
2022-10-12T21:35:34.700Z,100.00
2022-10-12T21:40:36.540Z,100.00
2022-10-12T21:45:38.160Z,100.00
2022-10-12T21:50:39.807Z,100.00
2022-10-12T21:55:41.454Z,100.00
2022-10-12T22:00:43.173Z,100.00
2022-10-12T22:05:44.864Z,100.00
2022-10-12T22:10:46.529Z,100.00
2022-10-12T22:15:48.169Z,100.00
2022-10-12T22:20:49.765Z,100.00
2022-10-12T22:25:51.452Z,100.00
2022-10-12T22:30:53.086Z,100.00
2022-10-12T22:35:55.394Z,100.00
2022-10-12T22:40:58.298Z,100.00
2022-10-12T22:46:00.091Z,100.00
2022-10-12T22:51:01.829Z,100.00
2022-10-12T22:56:07.951Z,100.00
2022-10-12T23:01:13.520Z,100.00
2022-10-12T23:06:15.865Z,100.00
2022-10-12T23:11:19.875Z,100.00
2022-10-12T23:16:26.245Z,100.00
2022-10-12T23:21:28.469Z,100.00
2022-10-12T23:26:30.158Z,100.00
2022-10-12T23:31:32.220Z,100.00
2022-10-12T23:36:35.083Z,100.00
2022-10-12T23:41:36.711Z,100.00
2022-10-12T23:46:38.365Z,100.00
2022-10-12T23:51:39.977Z,100.00
2022-10-12T23:56:41.672Z,100.00
